Time;durP1;ratioP1;P1;durP2;ratioP2;P2;SDS_P1;SDS_P2;PMS_P1;PMS_P2;Temp;Humidity;BMP_temperature;BMP_pressure;BME280_temperature;BME280_humidity;BME280_pressure;Samples;Min_cycle;Max_cycle;Signal;HPM_P1;HPM_P2
2023/05/23 00:01:09;;;;;;;5.10;3.35;;;21.10;53.70;;;;;;2262421;56;21810;-68
2023/05/23 00:03:37;;;;;;;4.60;3.17;;;21.10;53.10;;;;;;2263304;56;20952;-69
2023/05/23 00:06:05;;;;;;;5.22;3.50;;;21.10;53.20;;;;;;2491326;55;20964;-69
2023/05/23 00:08:31;;;;;;;5.62;3.67;;;21.10;53.30;;;;;;2491385;55;21013;-68
2023/05/23 00:10:59;;;;;;;5.75;3.65;;;21.00;53.30;;;;;;2491310;55;21008;-70
2023/05/23 00:13:25;;;;;;;4.68;3.25;;;21.00;53.40;;;;;;2489886;55;20966;-70
2023/05/23 00:15:52;;;;;;;5.10;3.00;;;21.00;53.40;;;;;;2257235;56;20945;-70
2023/05/23 00:18:18;;;;;;;4.78;3.28;;;21.00;53.60;;;;;;2262521;56;20913;-72
2023/05/23 00:20:45;;;;;;;4.80;3.53;;;21.00;53.90;;;;;;2491606;55;20940;-69
2023/05/23 00:23:17;;;;;;;4.62;2.85;;;21.00;53.60;;;;;;2262731;56;20979;-69
2023/05/23 00:25:47;;;;;;;5.00;3.12;;;21.00;53.60;;;;;;2491002;55;21044;-70
2023/05/23 00:28:13;;;;;;;4.70;2.83;;;21.00;53.60;;;;;;2492037;55;20956;-69
2023/05/23 00:30:39;;;;;;;4.37;2.80;;;21.00;53.60;;;;;;2262256;56;20948;-69
2023/05/23 00:33:06;;;;;;;5.03;3.47;;;21.00;53.70;;;;;;2262961;56;21036;-70
2023/05/23 00:35:33;;;;;;;5.07;3.55;;;21.00;53.70;;;;;;2262883;56;20985;-69
2023/05/23 00:38:01;;;;;;;4.85;3.15;;;20.90;53.70;;;;;;2491672;55;20933;-69
2023/05/23 00:40:27;;;;;;;5.28;3.45;;;20.90;53.70;;;;;;2491948;55;20959;-69
2023/05/23 00:42:53;;;;;;;5.28;3.62;;;20.90;53.80;;;;;;2265844;56;20992;-69
2023/05/23 00:45:21;;;;;;;5.10;3.33;;;20.90;53.90;;;;;;2262675;56;20977;-69
2023/05/23 00:47:47;;;;;;;6.37;3.25;;;20.90;54.00;;;;;;2262449;56;21986;-73
2023/05/23 00:50:14;;;;;;;5.72;4.00;;;20.90;54.00;;;;;;2491442;55;20976;-69
2023/05/23 00:52:41;;;;;;;5.22;3.70;;;20.80;54.00;;;;;;2491679;55;20984;-72
2023/05/23 00:55:09;;;;;;;8.07;4.30;;;20.80;54.20;;;;;;2262388;56;20996;-69
2023/05/23 00:57:40;;;;;;;5.97;3.83;;;20.80;54.30;;;;;;2491514;55;20948;-68
2023/05/23 01:00:12;;;;;;;5.47;3.37;;;20.80;54.40;;;;;;2262407;56;21000;-69
2023/05/23 01:02:42;;;;;;;5.25;3.42;;;20.80;54.40;;;;;;2262517;56;20989;-70
2023/05/23 01:05:10;;;;;;;4.90;3.50;;;20.80;54.40;;;;;;2262735;56;21537;-69
2023/05/23 01:07:36;;;;;;;5.40;3.55;;;20.80;54.40;;;;;;2262881;56;20944;-70
2023/05/23 01:10:03;;;;;;;6.57;3.20;;;20.80;54.40;;;;;;2491770;55;20939;-71
2023/05/23 01:14:42;;;;;;;6.07;3.67;;;20.80;54.50;;;;;;2491403;55;21426;-69
2023/05/23 01:20:19;;;;;;;4.45;2.75;;;20.80;54.80;;;;;;2491087;55;21016;-69
2023/05/23 01:27:52;;;;;;;3.85;2.20;;;20.80;54.40;;;;;;2262856;56;20937;-70
2023/05/23 01:30:20;;;;;;;3.62;2.05;;;20.80;54.20;;;;;;2262380;56;20933;-69
2023/05/23 01:33:08;;;;;;;4.47;2.45;;;20.80;54.00;;;;;;2264282;56;20992;-69
2023/05/23 01:35:35;;;;;;;5.57;3.10;;;20.70;54.30;;;;;;2262733;56;21044;-71
2023/05/23 01:38:01;;;;;;;4.53;3.08;;;20.80;54.20;;;;;;2491551;55;20929;-69
2023/05/23 01:40:28;;;;;;;5.82;2.92;;;20.70;54.20;;;;;;2491910;55;20912;-69
2023/05/23 01:43:09;;;;;;;5.93;3.67;;;20.60;54.20;;;;;;2263756;56;20917;-68
2023/05/23 01:45:35;;;;;;;5.20;3.53;;;20.70;54.70;;;;;;2266071;56;21014;-69
2023/05/23 01:48:02;;;;;;;5.87;3.95;;;20.60;54.40;;;;;;2486091;55;20920;-69
2023/05/23 01:50:28;;;;;;;5.15;3.30;;;20.60;54.50;;;;;;2262196;56;20929;-69
2023/05/23 01:52:55;;;;;;;4.97;3.05;;;20.50;54.40;;;;;;2486130;55;20984;-69
2023/05/23 01:55:23;;;;;;;4.35;2.87;;;20.50;54.40;;;;;;2264682;56;20931;-69
2023/05/23 01:57:50;;;;;;;4.97;3.28;;;20.50;54.50;;;;;;2470811;55;21634;-72
2023/05/23 02:00:17;;;;;;;5.75;3.33;;;20.50;54.50;;;;;;2254300;56;21046;-70
2023/05/23 02:02:44;;;;;;;5.50;4.03;;;20.50;54.50;;;;;;2254385;56;20955;-72
2023/05/23 02:05:11;;;;;;;5.70;3.65;;;20.50;54.60;;;;;;2253879;56;20973;-67
2023/05/23 02:07:37;;;;;;;5.87;3.72;;;20.50;54.60;;;;;;2262667;56;20932;-72
2023/05/23 02:10:03;;;;;;;4.93;3.50;;;20.50;54.70;;;;;;2491325;55;20965;-69
2023/05/23 02:12:30;;;;;;;5.40;3.55;;;20.40;54.60;;;;;;2491388;55;20940;-69
2023/05/23 02:15:00;;;;;;;5.55;3.67;;;20.40;54.50;;;;;;2262325;56;21012;-71
2023/05/23 02:17:26;;;;;;;5.40;3.60;;;20.40;54.60;;;;;;2261753;56;20968;-69
2023/05/23 02:19:53;;;;;;;5.72;3.75;;;20.30;54.60;;;;;;2491112;55;21031;-69
2023/05/23 02:22:23;;;;;;;5.75;3.55;;;20.30;54.70;;;;;;2490626;55;21774;-69
2023/05/23 02:24:52;;;;;;;4.97;3.35;;;20.30;54.80;;;;;;2491097;55;20984;-69
2023/05/23 02:27:19;;;;;;;5.43;3.37;;;20.30;54.80;;;;;;2490577;55;20964;-68
2023/05/23 02:29:46;;;;;;;5.43;3.70;;;20.20;54.70;;;;;;2491742;55;20956;-68
2023/05/23 02:32:12;;;;;;;4.72;3.00;;;20.20;54.70;;;;;;2262047;56;20937;-67
2023/05/23 02:34:39;;;;;;;6.07;3.47;;;20.20;54.80;;;;;;2262525;56;20996;-71
2023/05/23 02:37:05;;;;;;;5.40;3.40;;;20.20;54.80;;;;;;2262445;56;20991;-71
2023/05/23 02:39:33;;;;;;;4.85;3.17;;;20.10;54.80;;;;;;2491049;55;22124;-69
2023/05/23 02:42:00;;;;;;;5.70;3.15;;;20.10;54.90;;;;;;2261566;56;20980;-72
2023/05/23 02:44:27;;;;;;;4.70;3.22;;;20.10;54.90;;;;;;2491211;55;20913;-69
2023/05/23 02:46:53;;;;;;;7.40;3.75;;;20.10;55.00;;;;;;2262548;56;21032;-69
2023/05/23 02:49:20;;;;;;;6.40;4.45;;;20.10;55.10;;;;;;2490344;55;20961;-69
2023/05/23 02:51:49;;;;;;;5.85;4.15;;;20.00;55.10;;;;;;2490524;55;21008;-70
2023/05/23 02:54:15;;;;;;;6.93;3.87;;;20.00;55.30;;;;;;2262541;56;20961;-70
2023/05/23 02:56:42;;;;;;;6.43;4.30;;;20.00;55.20;;;;;;2262144;56;20920;-69
2023/05/23 02:59:11;;;;;;;5.87;3.62;;;20.00;55.30;;;;;;2263755;56;21422;-70
2023/05/23 03:01:37;;;;;;;6.53;4.30;;;20.00;55.30;;;;;;2262189;56;21033;-74
2023/05/23 03:04:07;;;;;;;6.20;3.95;;;20.00;55.40;;;;;;2491321;55;20960;-69
2023/05/23 03:06:35;;;;;;;8.57;3.85;;;20.00;55.40;;;;;;2261704;56;20940;-71
2023/05/23 03:09:02;;;;;;;6.22;3.85;;;20.00;55.40;;;;;;2262118;56;21022;-72
2023/05/23 03:11:28;;;;;;;7.97;5.12;;;20.00;55.50;;;;;;2490873;55;21857;-69
2023/05/23 03:13:55;;;;;;;6.32;4.60;;;20.00;55.60;;;;;;2491802;55;21739;-73
2023/05/23 03:16:25;;;;;;;7.28;5.65;;;20.00;55.70;;;;;;2262036;56;20975;-69
2023/05/23 03:18:51;;;;;;;6.85;4.68;;;20.00;55.90;;;;;;2262131;56;20932;-69
2023/05/23 03:21:17;;;;;;;6.35;4.47;;;20.00;55.90;;;;;;2262532;56;20964;-69
2023/05/23 03:23:44;;;;;;;5.60;3.95;;;20.00;55.90;;;;;;2262015;56;20956;-69
2023/05/23 03:26:11;;;;;;;7.07;4.32;;;20.00;55.90;;;;;;2262598;56;20924;-69
2023/05/23 03:28:37;;;;;;;6.35;4.25;;;20.00;55.90;;;;;;2262847;56;20994;-69
2023/05/23 03:31:04;;;;;;;6.12;4.20;;;20.00;55.90;;;;;;2262771;56;21004;-69
2023/05/23 03:33:30;;;;;;;5.87;4.10;;;20.00;56.00;;;;;;2491307;55;20996;-71
2023/05/23 03:36:00;;;;;;;6.25;4.20;;;20.00;56.00;;;;;;2491652;55;20937;-69
2023/05/23 03:38:27;;;;;;;5.20;3.47;;;20.00;56.00;;;;;;2490876;55;20912;-69
2023/05/23 03:40:54;;;;;;;5.62;4.07;;;20.00;56.10;;;;;;2491491;55;20961;-76
2023/05/23 03:43:21;;;;;;;6.10;4.65;;;20.00;56.20;;;;;;2262202;56;20973;-72
2023/05/23 03:45:50;;;;;;;6.50;4.22;;;20.00;56.30;;;;;;2261934;56;21020;-69
2023/05/23 03:48:17;;;;;;;6.15;4.25;;;20.00;56.50;;;;;;2491372;55;21469;-72
2023/05/23 03:50:43;;;;;;;6.75;4.70;;;20.00;56.40;;;;;;2261590;56;21000;-68
2023/05/23 03:53:09;;;;;;;6.82;4.82;;;20.00;56.40;;;;;;2262639;56;20956;-69
2023/05/23 03:55:37;;;;;;;7.57;4.60;;;20.00;56.50;;;;;;2263597;56;21913;-69
2023/05/23 03:58:03;;;;;;;6.28;4.47;;;20.10;57.20;;;;;;2262834;56;20954;-72
2023/05/23 04:00:30;;;;;;;6.57;4.47;;;20.10;56.50;;;;;;2262553;56;21729;-71
2023/05/23 04:02:59;;;;;;;6.45;4.07;;;20.10;56.60;;;;;;2263315;56;20981;-71
2023/05/23 04:05:46;;;;;;;7.28;4.68;;;20.10;56.60;;;;;;2490909;55;21008;-69
2023/05/23 04:08:12;;;;;;;6.40;4.97;;;20.10;57.00;;;;;;2262899;56;21402;-72
2023/05/23 04:10:39;;;;;;;7.15;4.97;;;20.10;56.70;;;;;;2491112;55;20988;-69
2023/05/23 04:13:06;;;;;;;5.70;4.28;;;20.10;56.80;;;;;;2491081;55;20917;-69
2023/05/23 04:15:34;;;;;;;7.50;5.12;;;20.00;56.70;;;;;;2263922;56;21565;-72
2023/05/23 04:18:00;;;;;;;7.55;5.53;;;20.30;57.00;;;;;;2262424;56;21008;-72
2023/05/23 04:20:27;;;;;;;6.68;4.93;;;20.20;57.10;;;;;;2261574;56;21038;-72
2023/05/23 04:22:54;;;;;;;6.43;4.22;;;20.20;57.10;;;;;;2262885;56;20976;-69
2023/05/23 04:25:23;;;;;;;6.25;4.47;;;20.20;57.10;;;;;;2489199;55;21008;-69
2023/05/23 04:27:53;;;;;;;5.75;3.80;;;20.30;57.20;;;;;;2490261;55;20988;-73
2023/05/23 04:30:19;;;;;;;6.78;4.60;;;20.30;57.20;;;;;;2261950;56;20960;-69
2023/05/23 04:32:45;;;;;;;6.35;4.22;;;20.30;57.20;;;;;;2273086;56;62181;-69
2023/05/23 04:35:12;;;;;;;8.10;5.10;;;20.30;57.20;;;;;;2516205;55;21803;-71
2023/05/23 04:37:44;;;;;;;7.60;4.32;;;20.30;57.20;;;;;;2516249;55;20998;-70
2023/05/23 04:40:12;;;;;;;6.70;4.47;;;20.40;57.40;;;;;;2460322;54;21045;-68
2023/05/23 04:42:41;;;;;;;6.15;4.30;;;20.40;57.30;;;;;;2280286;55;20953;-71
2023/05/23 04:45:08;;;;;;;6.75;4.43;;;20.40;57.30;;;;;;2485990;55;20933;-68
2023/05/23 04:47:36;;;;;;;8.10;4.37;;;20.40;57.30;;;;;;2252188;56;22188;-72
2023/05/23 04:50:03;;;;;;;6.22;4.37;;;20.40;57.30;;;;;;2490984;55;20917;-71
2023/05/23 04:52:32;;;;;;;6.53;4.37;;;20.50;57.40;;;;;;2261972;56;20927;-71
2023/05/23 04:54:59;;;;;;;6.25;4.60;;;20.50;57.40;;;;;;2262378;56;21049;-70
2023/05/23 04:57:25;;;;;;;5.72;4.18;;;20.50;57.40;;;;;;2491185;55;20948;-73
2023/05/23 04:59:52;;;;;;;8.38;5.65;;;20.50;57.50;;;;;;2491282;55;20996;-69
2023/05/23 05:02:18;;;;;;;6.75;5.10;;;20.60;57.70;;;;;;2262139;56;21041;-72
2023/05/23 05:04:44;;;;;;;8.55;5.15;;;20.60;57.80;;;;;;2511564;55;21484;-69
2023/05/23 05:07:11;;;;;;;8.27;5.85;;;20.60;57.80;;;;;;2491022;55;21720;-70
2023/05/23 05:09:37;;;;;;;9.18;6.15;;;20.70;57.90;;;;;;2261141;56;21559;-70
2023/05/23 05:12:06;;;;;;;8.70;6.25;;;20.70;57.90;;;;;;2261182;55;21015;-70
2023/05/23 05:14:43;;;;;;;7.70;5.53;;;20.70;58.00;;;;;;2261313;55;21037;-70
2023/05/23 05:17:13;;;;;;;9.82;7.12;;;20.80;58.30;;;;;;2491060;55;20973;-73
2023/05/23 05:19:40;;;;;;;10.43;6.70;;;20.80;58.10;;;;;;2256870;56;20949;-70
2023/05/23 05:22:07;;;;;;;9.10;6.37;;;20.80;58.10;;;;;;2262179;56;20980;-70
2023/05/23 05:24:35;;;;;;;10.38;7.68;;;20.90;58.20;;;;;;2261886;56;20941;-70
2023/05/23 05:27:01;;;;;;;12.73;8.43;;;20.90;58.30;;;;;;2262407;56;20973;-72
2023/05/23 05:29:28;;;;;;;11.60;8.23;;;21.00;58.30;;;;;;2491027;55;20983;-70
2023/05/23 05:31:54;;;;;;;10.43;7.60;;;21.00;58.30;;;;;;2490684;55;20941;-71
2023/05/23 05:34:21;;;;;;;11.07;7.35;;;21.00;58.30;;;;;;2490556;55;21012;-73
2023/05/23 05:36:47;;;;;;;13.98;8.38;;;21.10;58.40;;;;;;2489477;55;20966;-69
2023/05/23 05:39:15;;;;;;;11.70;7.87;;;21.10;58.40;;;;;;2490635;55;21587;-70
2023/05/23 05:41:42;;;;;;;11.35;7.82;;;21.20;58.40;;;;;;2490159;55;20940;-70
2023/05/23 05:44:08;;;;;;;10.70;7.82;;;21.20;58.40;;;;;;2262258;56;20937;-70
2023/05/23 05:46:37;;;;;;;12.98;8.90;;;21.20;58.40;;;;;;2264889;56;20937;-69
2023/05/23 05:49:04;;;;;;;12.88;8.77;;;21.30;58.40;;;;;;2261615;56;20959;-70
2023/05/23 05:51:30;;;;;;;11.63;7.93;;;21.30;58.40;;;;;;2263301;56;21497;-70
2023/05/23 05:53:56;;;;;;;12.25;8.30;;;21.30;58.30;;;;;;2260651;56;21814;-69
2023/05/23 05:56:25;;;;;;;11.50;8.15;;;21.40;58.40;;;;;;2491135;55;21000;-68
2023/05/23 05:58:51;;;;;;;11.93;7.80;;;21.40;58.40;;;;;;2491177;55;20957;-70
2023/05/23 06:01:17;;;;;;;11.85;7.97;;;21.40;58.40;;;;;;2261568;56;20960;-70
2023/05/23 06:03:44;;;;;;;11.18;8.38;;;21.50;58.40;;;;;;2262178;56;21738;-70
2023/05/23 06:06:10;;;;;;;11.40;7.97;;;21.40;58.20;;;;;;2491494;55;20988;-69
2023/05/23 06:08:37;;;;;;;12.75;8.68;;;21.50;58.20;;;;;;2491306;55;20936;-70
2023/05/23 06:11:05;;;;;;;10.95;7.93;;;21.50;58.30;;;;;;2491264;55;20987;-69
2023/05/23 06:13:40;;;;;;;13.18;8.98;;;21.60;58.30;;;;;;2262581;56;20972;-70
2023/05/23 06:16:07;;;;;;;12.90;9.18;;;21.60;58.60;;;;;;2491005;55;21007;-72
2023/05/23 06:18:35;;;;;;;12.95;9.18;;;21.60;58.40;;;;;;2262687;56;21013;-70
2023/05/23 06:21:02;;;;;;;11.57;8.27;;;21.60;58.40;;;;;;2263557;56;21000;-71
2023/05/23 06:23:28;;;;;;;11.50;8.32;;;21.60;58.40;;;;;;2482910;55;21513;-70
2023/05/23 06:25:55;;;;;;;11.50;8.57;;;21.70;58.50;;;;;;2487772;55;20960;-71
2023/05/23 06:31:49;;;;;;;10.57;6.97;;;21.80;58.80;;;;;;2490907;55;21032;-71
2023/05/23 06:34:15;;;;;;;13.98;9.65;;;21.80;58.30;;;;;;2491463;55;21350;-70
2023/05/23 06:36:42;;;;;;;13.30;9.25;;;21.80;58.40;;;;;;2261632;56;20925;-71
2023/05/23 06:39:08;;;;;;;12.25;8.07;;;21.80;58.40;;;;;;2262286;56;21000;-73
2023/05/23 06:41:35;;;;;;;11.85;8.52;;;21.90;58.50;;;;;;2249492;59;21089;-71
2023/05/23 06:44:01;;;;;;;10.63;7.93;;;21.90;58.50;;;;;;2490196;55;21016;-71
2023/05/23 06:46:28;;;;;;;10.40;7.55;;;22.00;58.40;;;;;;2492066;55;21016;-71
2023/05/23 06:48:54;;;;;;;11.77;8.50;;;22.00;58.40;;;;;;2490487;55;21363;-70
2023/05/23 06:51:26;;;;;;;13.10;9.52;;;22.00;58.40;;;;;;2261698;56;20971;-69
2023/05/23 06:53:55;;;;;;;12.07;8.65;;;22.10;58.40;;;;;;2261316;56;20936;-71
2023/05/23 06:56:23;;;;;;;11.40;8.35;;;22.10;58.30;;;;;;2490782;55;21052;-71
2023/05/23 06:58:49;;;;;;;11.55;8.25;;;22.10;58.30;;;;;;2261566;56;21048;-68
2023/05/23 07:01:15;;;;;;;12.82;8.15;;;22.10;58.30;;;;;;2490699;55;20945;-69
2023/05/23 07:03:44;;;;;;;11.98;8.57;;;22.20;58.40;;;;;;2263730;56;20946;-68
2023/05/23 07:06:10;;;;;;;11.40;8.60;;;22.20;58.40;;;;;;2260569;56;21019;-69
2023/05/23 07:08:37;;;;;;;12.75;8.57;;;22.30;58.40;;;;;;2261816;56;20968;-67
2023/05/23 07:11:05;;;;;;;11.75;9.13;;;22.30;58.40;;;;;;2491348;55;20940;-68
2023/05/23 07:13:32;;;;;;;13.18;9.93;;;22.30;58.40;;;;;;2262121;56;20988;-68
2023/05/23 07:15:58;;;;;;;11.65;8.77;;;22.40;58.90;;;;;;2491166;55;21025;-69
2023/05/23 07:18:24;;;;;;;11.45;9.07;;;22.40;58.30;;;;;;2489961;55;21442;-71
2023/05/23 07:20:51;;;;;;;11.25;8.45;;;22.40;58.20;;;;;;2261495;56;20960;-69
2023/05/23 07:23:20;;;;;;;11.68;8.75;;;22.40;58.30;;;;;;2261457;56;21092;-69
2023/05/23 07:25:47;;;;;;;12.20;9.35;;;22.40;58.20;;;;;;2260761;56;21635;-70
2023/05/23 07:28:20;;;;;;;13.45;9.50;;;22.50;58.30;;;;;;2261954;56;20943;-68
2023/05/23 07:30:46;;;;;;;14.00;10.75;;;22.40;58.10;;;;;;2260983;56;20936;-69
2023/05/23 07:33:16;;;;;;;14.57;10.70;;;22.50;58.10;;;;;;2264180;56;21094;-70
2023/05/23 07:35:43;;;;;;;15.35;10.90;;;22.50;58.00;;;;;;2268450;56;21054;-72
2023/05/23 07:38:09;;;;;;;14.73;10.65;;;22.50;58.00;;;;;;2259313;56;21402;-70
2023/05/23 07:40:40;;;;;;;12.25;9.77;;;22.50;58.10;;;;;;2261567;56;20920;-70
2023/05/23 07:43:06;;;;;;;14.30;10.93;;;22.50;58.00;;;;;;2491286;55;21790;-69
2023/05/23 07:45:33;;;;;;;13.65;10.35;;;22.50;58.00;;;;;;2490075;55;21005;-70
2023/05/23 07:48:17;;;;;;;11.95;9.57;;;22.50;57.90;;;;;;2490751;55;21862;-71
2023/05/23 07:50:44;;;;;;;13.25;9.82;;;22.60;58.10;;;;;;2479604;55;20978;-70
2023/05/23 07:53:13;;;;;;;13.80;10.95;;;22.50;57.80;;;;;;2489684;55;20988;-69
2023/05/23 07:55:40;;;;;;;17.37;10.98;;;22.50;57.90;;;;;;2489920;55;21818;-71
2023/05/23 07:58:06;;;;;;;14.05;10.98;;;22.50;57.90;;;;;;2258302;56;20952;-70
2023/05/23 08:00:33;;;;;;;13.30;10.10;;;22.60;58.10;;;;;;2490249;55;20951;-69
2023/05/23 08:02:59;;;;;;;14.30;10.70;;;22.50;58.00;;;;;;2490656;55;21069;-69
2023/05/23 08:05:25;;;;;;;14.52;10.48;;;22.60;58.00;;;;;;2262499;56;21037;-69
2023/05/23 08:07:53;;;;;;;12.52;10.15;;;22.60;58.00;;;;;;2265213;56;20980;-70
2023/05/23 08:10:24;;;;;;;14.27;10.70;;;22.60;58.00;;;;;;2263545;55;20977;-69
2023/05/23 08:12:54;;;;;;;12.98;10.25;;;22.70;58.00;;;;;;2259812;56;21794;-69
2023/05/23 08:15:22;;;;;;;13.00;9.80;;;22.70;57.90;;;;;;2261848;56;20964;-72
2023/05/23 08:17:48;;;;;;;13.48;10.88;;;22.70;57.80;;;;;;2261466;56;21485;-69
2023/05/23 08:20:15;;;;;;;13.52;10.25;;;22.70;57.80;;;;;;2262059;56;21836;-69
2023/05/23 08:22:41;;;;;;;12.95;9.98;;;22.70;57.80;;;;;;2261667;56;20968;-73
2023/05/23 08:25:09;;;;;;;13.13;9.52;;;22.80;58.00;;;;;;2491183;55;21000;-69
2023/05/23 08:27:43;;;;;;;13.65;10.75;;;22.80;58.20;;;;;;2261682;56;21065;-69
2023/05/23 08:30:10;;;;;;;13.18;9.13;;;22.90;58.40;;;;;;2262148;56;21013;-69
2023/05/23 08:32:36;;;;;;;14.90;10.68;;;22.90;58.30;;;;;;2261106;56;20960;-71
2023/05/23 08:35:06;;;;;;;14.68;10.93;;;23.00;58.10;;;;;;2261811;56;20968;-73
2023/05/23 08:37:34;;;;;;;11.48;9.18;;;23.10;58.00;;;;;;2490922;55;20952;-69
2023/05/23 08:40:02;;;;;;;12.57;9.85;;;23.10;57.70;;;;;;2267485;56;20998;-70
2023/05/23 08:42:29;;;;;;;11.40;8.55;;;23.10;57.50;;;;;;2492639;55;20905;-69
2023/05/23 08:44:56;;;;;;;12.10;9.35;;;23.20;57.50;;;;;;2261703;56;20940;-70
2023/05/23 08:47:23;;;;;;;11.20;8.43;;;23.20;57.40;;;;;;2491274;55;21850;-73
2023/05/23 08:49:50;;;;;;;12.75;9.20;;;23.20;57.20;;;;;;2490553;55;21022;-70
2023/05/23 08:52:20;;;;;;;11.15;8.40;;;23.20;57.10;;;;;;2491042;55;20952;-70
2023/05/23 08:54:47;;;;;;;11.32;8.35;;;23.20;57.00;;;;;;2490010;55;20972;-70
2023/05/23 08:57:13;;;;;;;10.77;7.53;;;23.20;57.00;;;;;;2262213;56;21724;-69
2023/05/23 08:59:39;;;;;;;11.70;8.45;;;23.20;56.90;;;;;;2485012;55;21011;-69
2023/05/23 09:02:07;;;;;;;13.65;8.43;;;23.20;56.70;;;;;;2258810;56;20940;-69
2023/05/23 09:04:38;;;;;;;12.25;9.63;;;23.20;56.60;;;;;;2488669;55;21009;-71
2023/05/23 09:07:07;;;;;;;10.52;7.93;;;23.20;56.60;;;;;;2264863;56;20988;-72
2023/05/23 09:09:33;;;;;;;11.00;8.20;;;23.20;56.60;;;;;;2490511;55;20948;-72
2023/05/23 09:12:02;;;;;;;12.25;7.65;;;23.10;56.50;;;;;;2488098;55;21058;-73
2023/05/23 09:14:30;;;;;;;9.40;6.87;;;23.10;56.40;;;;;;2258866;56;20983;-69
2023/05/23 09:17:01;;;;;;;10.95;8.10;;;23.10;56.40;;;;;;2490174;55;20984;-70
2023/05/23 09:19:29;;;;;;;10.32;7.22;;;23.10;56.30;;;;;;2491283;55;21063;-70
2023/05/23 09:21:56;;;;;;;10.82;7.68;;;23.10;56.30;;;;;;2261426;56;20992;-69
2023/05/23 09:24:33;;;;;;;10.30;7.80;;;23.00;56.20;;;;;;2490848;55;20993;-69
2023/05/23 09:27:00;;;;;;;11.40;8.82;;;23.00;56.20;;;;;;2491182;55;20992;-71
2023/05/23 09:29:27;;;;;;;13.25;7.87;;;23.00;56.20;;;;;;2263928;56;21027;-69
2023/05/23 09:31:59;;;;;;;9.52;7.85;;;23.00;56.20;;;;;;2259579;56;21036;-70
2023/05/23 09:34:27;;;;;;;12.05;8.68;;;22.90;56.10;;;;;;2491197;55;21013;-68
2023/05/23 09:36:54;;;;;;;12.02;8.48;;;22.90;56.10;;;;;;2490085;55;20968;-69
2023/05/23 09:39:20;;;;;;;11.40;9.25;;;22.90;56.30;;;;;;2264346;56;21030;-69
2023/05/23 09:41:50;;;;;;;12.30;8.48;;;22.90;56.30;;;;;;2486849;55;20957;-70
2023/05/23 09:44:21;;;;;;;11.40;8.90;;;22.90;56.30;;;;;;2262867;56;20993;-71
2023/05/23 09:46:51;;;;;;;12.07;9.07;;;22.90;56.30;;;;;;2490825;55;21000;-68
2023/05/23 09:49:21;;;;;;;10.55;8.70;;;22.90;56.30;;;;;;2262263;56;21067;-71
2023/05/23 09:52:00;;;;;;;;;;;22.90;56.30;;;;;;2266273;56;20945;-69
2023/05/23 09:54:26;;;;;;;9.77;7.57;;;22.90;56.30;;;;;;2260988;56;20085;-69
2023/05/23 09:56:54;;;;;;;10.52;8.40;;;22.90;56.20;;;;;;2490372;55;20940;-72
2023/05/23 09:59:23;;;;;;;8.85;7.12;;;22.90;56.20;;;;;;2491517;55;20956;-70
2023/05/23 10:01:51;;;;;;;10.98;8.77;;;22.90;56.20;;;;;;2490554;55;21061;-70
2023/05/23 10:04:21;;;;;;;10.63;7.35;;;22.90;56.10;;;;;;2491389;55;21016;-69
2023/05/23 10:06:55;;;;;;;10.57;7.72;;;22.90;56.10;;;;;;2261701;56;21067;-71
2023/05/23 10:09:23;;;;;;;9.45;7.22;;;22.90;55.90;;;;;;2261765;56;21004;-68
2023/05/23 10:13:21;;;;;;;9.43;7.25;;;22.90;55.90;;;;;;2262205;56;21012;-69
2023/05/23 10:15:48;;;;;;;8.73;7.18;;;22.90;55.70;;;;;;2490615;55;20964;-71
2023/05/23 10:18:20;;;;;;;11.85;7.43;;;22.90;55.80;;;;;;2490984;55;21044;-70
2023/05/23 10:20:49;;;;;;;8.00;6.32;;;22.90;55.70;;;;;;2261320;56;20940;-69
2023/05/23 10:23:17;;;;;;;8.20;6.60;;;22.90;55.60;;;;;;2490645;55;21012;-70
2023/05/23 10:25:44;;;;;;;9.50;6.72;;;22.90;55.70;;;;;;2485899;55;21090;-71
2023/05/23 10:28:11;;;;;;;7.78;5.97;;;23.00;56.60;;;;;;2262529;56;21758;-68
2023/05/23 10:30:38;;;;;;;9.20;7.03;;;23.00;56.00;;;;;;2261597;56;20960;-72
2023/05/23 10:33:07;;;;;;;7.62;6.00;;;23.10;55.90;;;;;;2262304;56;20945;-69
2023/05/23 10:49:02;;;;;;;7.65;6.50;;;23.10;55.80;;;;;;2262179;56;20956;-69
2023/05/23 10:51:50;;;;;;;6.78;5.15;;;23.10;55.40;;;;;;2525788;53;24755;-73
2023/05/23 10:54:20;;;;;;;8.73;5.62;;;23.40;55.30;;;;;;2537581;54;20936;-72
2023/05/23 10:56:57;;;;;;;8.60;6.40;;;23.40;55.20;;;;;;2536825;54;21011;-70
2023/05/23 10:59:26;;;;;;;8.85;6.25;;;23.40;55.20;;;;;;2537609;54;21015;-71
2023/05/23 11:01:52;;;;;;;9.18;6.87;;;23.40;55.20;;;;;;2536547;54;20970;-72
2023/05/23 11:04:27;;;;;;;9.02;6.90;;;23.50;55.30;;;;;;2300473;54;20988;-71
2023/05/23 11:06:55;;;;;;;9.23;7.15;;;23.50;54.90;;;;;;2300271;55;21595;-71
2023/05/23 11:09:22;;;;;;;9.95;6.93;;;23.50;55.00;;;;;;2299999;54;21831;-71
2023/05/23 11:12:09;;;;;;;9.05;6.32;;;23.50;55.00;;;;;;2299879;55;21471;-71
2023/05/23 11:14:56;;;;;;;11.10;6.85;;;23.60;55.00;;;;;;2300129;55;21027;-74
2023/05/23 11:17:30;;;;;;;9.25;6.65;;;23.60;55.10;;;;;;2306389;55;21050;-73
2023/05/23 11:20:08;;;;;;;10.70;7.47;;;23.70;55.00;;;;;;2300001;54;20993;-70
2023/05/23 11:22:35;;;;;;;10.48;7.45;;;23.70;54.70;;;;;;2536890;54;21433;-71
2023/05/23 11:25:07;;;;;;;11.75;8.32;;;23.70;54.70;;;;;;2535975;54;20953;-70
2023/05/23 11:27:36;;;;;;;9.65;7.12;;;23.80;54.60;;;;;;2537161;53;20955;-72
2023/05/23 11:30:46;;;;;;;10.43;7.43;;;23.80;54.60;;;;;;2300504;54;20945;-70
2023/05/23 11:33:13;;;;;;;9.75;6.60;;;23.80;54.60;;;;;;2537401;54;20934;-70
2023/05/23 11:35:40;;;;;;;10.10;6.90;;;23.80;54.80;;;;;;2300131;54;21676;-69
2023/05/23 11:38:07;;;;;;;9.75;7.40;;;23.90;54.60;;;;;;2300301;54;20991;-71
2023/05/23 11:40:38;;;;;;;8.80;5.80;;;23.90;54.40;;;;;;2279489;54;21036;-70
2023/05/23 11:43:12;;;;;;;8.68;6.75;;;23.90;54.30;;;;;;2509387;54;20972;-70
2023/05/23 11:45:40;;;;;;;8.63;5.95;;;23.90;54.30;;;;;;2272482;55;21888;-70
2023/05/23 11:48:11;;;;;;;7.70;5.93;;;24.00;54.40;;;;;;2273543;55;21109;-70
2023/05/23 11:50:49;;;;;;;7.95;5.43;;;24.00;54.30;;;;;;2496715;55;20935;-72
2023/05/23 11:53:19;;;;;;;6.40;4.90;;;24.00;54.30;;;;;;2482921;54;21032;-72
2023/05/23 11:55:58;;;;;;;8.20;5.20;;;24.10;54.30;;;;;;2258809;56;21008;-74
2023/05/23 11:58:58;;;;;;;7.25;5.28;;;24.20;54.20;;;;;;2516634;54;20978;-70
2023/05/23 12:01:30;;;;;;;6.47;4.85;;;24.20;54.10;;;;;;2302704;54;21299;-72
2023/05/23 12:03:56;;;;;;;6.60;4.72;;;24.20;54.00;;;;;;2569901;53;21884;-72
2023/05/23 12:06:23;;;;;;;6.95;5.12;;;24.30;54.00;;;;;;2324438;54;21871;-72
2023/05/23 12:08:53;;;;;;;6.55;4.93;;;24.30;53.90;;;;;;2326677;54;20948;-71
2023/05/23 12:11:19;;;;;;;9.02;5.05;;;24.40;53.80;;;;;;2326153;54;20930;-72
2023/05/23 12:13:45;;;;;;;5.65;4.37;;;24.40;53.80;;;;;;2564908;53;20917;-70
2023/05/23 12:16:12;;;;;;;9.15;4.90;;;24.40;53.90;;;;;;2328718;54;21035;-75
2023/05/23 12:18:47;;;;;;;7.18;5.28;;;24.50;54.00;;;;;;2319901;54;20921;-71
2023/05/23 12:21:14;;;;;;;8.00;5.55;;;24.60;53.80;;;;;;2328283;54;21017;-71
2023/05/23 12:23:41;;;;;;;8.25;5.25;;;24.60;53.80;;;;;;2328881;54;21006;-71
2023/05/23 12:26:09;;;;;;;6.90;5.07;;;24.60;54.10;;;;;;2319974;54;21052;-72
2023/05/23 12:28:39;;;;;;;7.97;4.93;;;24.60;53.20;;;;;;2327235;54;21517;-69
2023/05/23 12:31:16;;;;;;;6.72;4.75;;;24.70;53.10;;;;;;2327307;54;20995;-73
2023/05/23 12:33:43;;;;;;;6.78;4.95;;;24.70;52.80;;;;;;2327384;54;20932;-74
2023/05/23 12:36:10;;;;;;;7.03;4.72;;;24.70;52.70;;;;;;2327728;54;20909;-72
2023/05/23 12:38:39;;;;;;;6.53;4.72;;;24.70;52.60;;;;;;2570363;53;20972;-71
2023/05/23 12:41:16;;;;;;;6.85;5.10;;;24.70;52.60;;;;;;2569705;53;20933;-72
2023/05/23 12:43:52;;;;;;;7.00;4.97;;;24.70;52.40;;;;;;2330104;54;21855;-71
2023/05/23 12:46:25;;;;;;;7.00;5.20;;;24.70;52.30;;;;;;2315932;54;20941;-71
2023/05/23 12:48:51;;;;;;;7.40;4.43;;;24.70;52.20;;;;;;2569267;53;21498;-72
2023/05/23 12:51:21;;;;;;;8.65;4.60;;;24.70;52.10;;;;;;2327745;54;20921;-71
2023/05/23 12:53:47;;;;;;;6.75;4.70;;;24.70;52.00;;;;;;2569255;53;20940;-76
2023/05/23 12:56:13;;;;;;;6.70;4.40;;;24.70;51.80;;;;;;2570439;53;20929;-73
2023/05/23 12:58:39;;;;;;;6.32;4.53;;;24.60;51.70;;;;;;2569865;53;21525;-73
2023/05/23 13:01:06;;;;;;;6.93;4.32;;;24.60;51.80;;;;;;2326095;54;21437;-73
2023/05/23 13:03:32;;;;;;;7.12;4.22;;;24.60;51.90;;;;;;2327571;54;20944;-71
2023/05/23 13:05:58;;;;;;;7.70;4.57;;;24.60;52.00;;;;;;2569619;53;21013;-70
2023/05/23 13:08:26;;;;;;;5.32;4.20;;;24.50;51.90;;;;;;2570389;53;20933;-71
2023/05/23 13:11:10;;;;;;;5.62;4.15;;;24.60;51.80;;;;;;2326403;54;21509;-70
2023/05/23 13:13:37;;;;;;;5.85;3.92;;;24.50;51.30;;;;;;2327046;54;20921;-71
2023/05/23 13:16:04;;;;;;;5.85;3.92;;;24.50;51.80;;;;;;2327023;54;20941;-71
2023/05/23 13:18:30;;;;;;;5.22;3.87;;;24.50;51.70;;;;;;2327729;54;20936;-70